createdAt,value
2022-12-18T00:00:25.416Z,-7.25
2022-12-18T00:02:57.922Z,-7.08
2022-12-18T00:05:26.646Z,-7.01
2022-12-18T00:07:54.925Z,-6.99
2022-12-18T00:10:23.557Z,-6.88
2022-12-18T00:12:52.693Z,-6.88
2022-12-18T00:15:21.503Z,-6.93
2022-12-18T00:17:50.159Z,-7.00
2022-12-18T00:20:26.533Z,-6.86
2022-12-18T00:22:54.832Z,-6.73
2022-12-18T00:25:23.650Z,-6.82
2022-12-18T00:27:52.712Z,-6.82
2022-12-18T00:30:21.572Z,-6.83
2022-12-18T00:32:50.433Z,-6.99
2022-12-18T00:35:20.514Z,-6.74
2022-12-18T00:37:48.895Z,-7.12
2022-12-18T00:40:17.688Z,-6.95
2022-12-18T00:42:57.149Z,-6.84
2022-12-18T00:45:26.379Z,-6.78
2022-12-18T00:47:55.266Z,-6.75
2022-12-18T00:50:26.758Z,-6.77
2022-12-18T00:52:55.061Z,-6.77
2022-12-18T00:55:24.411Z,-6.73
2022-12-18T00:57:53.539Z,-6.77
2022-12-18T01:00:23.248Z,-6.74
2022-12-18T01:02:51.995Z,-6.89
2022-12-18T01:05:20.826Z,-6.55
2022-12-18T01:07:50.468Z,-6.50
2022-12-18T01:10:19.423Z,-6.53
2022-12-18T01:12:48.341Z,-6.28
2022-12-18T01:15:17.535Z,-6.32
2022-12-18T01:17:46.421Z,-6.33
2022-12-18T01:20:16.079Z,-6.48
2022-12-18T01:22:44.941Z,-6.50
2022-12-18T01:25:14.989Z,-6.35
2022-12-18T01:27:43.619Z,-6.28
2022-12-18T01:30:13.555Z,-6.37
2022-12-18T01:32:42.247Z,-6.28
2022-12-18T01:35:11.020Z,-6.14
2022-12-18T01:37:39.492Z,-6.36
2022-12-18T01:40:09.784Z,-6.12
2022-12-18T01:42:39.882Z,-6.23
2022-12-18T01:45:24.727Z,-6.06
2022-12-18T01:47:55.319Z,-6.03
2022-12-18T01:50:26.594Z,-6.12
2022-12-18T01:52:58.324Z,-6.21
2022-12-18T01:55:29.255Z,-6.23
2022-12-18T01:58:01.114Z,-6.38
2022-12-18T02:00:30.707Z,-6.23
2022-12-18T02:02:59.437Z,-6.25
2022-12-18T02:05:38.307Z,-6.31
2022-12-18T02:08:12.291Z,-6.24
2022-12-18T02:10:49.333Z,-6.42
2022-12-18T02:13:22.907Z,-6.48
2022-12-18T02:15:58.015Z,-6.24
2022-12-18T02:18:28.624Z,-6.22
2022-12-18T02:21:01.997Z,-6.35
2022-12-18T02:23:45.676Z,-6.35
2022-12-18T02:26:21.263Z,-6.41
2022-12-18T02:28:56.198Z,-6.36
2022-12-18T02:31:27.439Z,-6.47
2022-12-18T02:34:02.800Z,-6.23
2022-12-18T02:36:36.138Z,-6.25
2022-12-18T02:39:06.595Z,-6.30
2022-12-18T02:41:40.369Z,-6.40
2022-12-18T02:44:12.401Z,-6.17
2022-12-18T02:46:43.551Z,-6.21
2022-12-18T02:49:26.963Z,-6.05
2022-12-18T02:52:03.530Z,-6.22
2022-12-18T02:54:41.795Z,-6.00
2022-12-18T02:57:17.271Z,-6.06
2022-12-18T02:59:56.305Z,-6.13
2022-12-18T03:02:29.546Z,-6.01
2022-12-18T03:05:02.462Z,-6.06
2022-12-18T03:07:37.907Z,-6.09
2022-12-18T03:10:13.465Z,-6.25
2022-12-18T03:12:46.902Z,-6.42
2022-12-18T03:15:19.501Z,-6.25
2022-12-18T03:18:06.893Z,-6.28
2022-12-18T03:20:37.441Z,-6.38
2022-12-18T03:23:10.424Z,-6.55
2022-12-18T03:25:42.360Z,-6.62
2022-12-18T03:28:16.837Z,-6.39
2022-12-18T03:30:46.987Z,-6.43
2022-12-18T03:33:20.740Z,-6.50
2022-12-18T03:35:52.325Z,-6.77
2022-12-18T03:38:21.246Z,-6.94
2022-12-18T03:40:59.411Z,-6.68
2022-12-18T03:43:39.493Z,-6.83
2022-12-18T03:46:18.005Z,-6.91
2022-12-18T03:48:55.239Z,-6.81
2022-12-18T03:51:27.611Z,-6.96
2022-12-18T03:53:59.397Z,-6.91
2022-12-18T03:56:34.513Z,-7.35
2022-12-18T03:59:05.521Z,-7.34
2022-12-18T04:01:36.668Z,-7.47
2022-12-18T04:04:06.321Z,-7.49
2022-12-18T04:06:38.217Z,-7.50
2022-12-18T04:09:07.268Z,-7.49
2022-12-18T04:11:40.139Z,-7.49
2022-12-18T04:14:14.456Z,-7.52
2022-12-18T04:16:46.331Z,-7.72
2022-12-18T04:19:17.874Z,-7.68
2022-12-18T04:21:49.489Z,-7.73
2022-12-18T04:24:18.258Z,-7.67
2022-12-18T04:26:56.385Z,-7.67
2022-12-18T04:29:29.647Z,-8.01
2022-12-18T04:31:58.317Z,-8.21
2022-12-18T04:34:28.973Z,-8.21
2022-12-18T04:36:58.564Z,-8.16
2022-12-18T04:39:27.863Z,-8.11
2022-12-18T04:41:59.541Z,-8.05
2022-12-18T04:44:29.738Z,-8.05
2022-12-18T04:46:58.281Z,-8.24
2022-12-18T04:49:26.933Z,-8.12
2022-12-18T04:51:56.145Z,-8.13
2022-12-18T04:54:24.772Z,-8.46
2022-12-18T04:56:53.470Z,-8.45
2022-12-18T04:59:22.589Z,-8.39
2022-12-18T05:01:54.484Z,-8.55
2022-12-18T05:04:23.263Z,-8.71
2022-12-18T05:06:51.871Z,-8.61
2022-12-18T05:09:20.530Z,-8.68
2022-12-18T05:11:49.228Z,-8.79
2022-12-18T05:14:18.003Z,-8.78
2022-12-18T05:16:46.588Z,-8.66
2022-12-18T05:19:16.912Z,-8.66
2022-12-18T05:21:45.648Z,-8.49
2022-12-18T05:24:14.655Z,-8.44
2022-12-18T05:26:43.611Z,-8.49
2022-12-18T05:29:13.379Z,-8.49
2022-12-18T05:31:42.384Z,-8.46
2022-12-18T05:34:12.137Z,-8.50
2022-12-18T05:36:43.031Z,-8.37
2022-12-18T05:39:13.190Z,-8.42
2022-12-18T05:41:41.822Z,-8.73
2022-12-18T05:44:11.142Z,-8.52
2022-12-18T05:46:39.527Z,-8.55
2022-12-18T05:49:09.300Z,-8.38
2022-12-18T05:51:38.018Z,-8.46
2022-12-18T05:54:08.244Z,-8.40
2022-12-18T05:56:36.920Z,-8.38
2022-12-18T05:59:07.040Z,-8.41
2022-12-18T06:01:35.440Z,-8.41
2022-12-18T06:04:04.478Z,-8.47
2022-12-18T06:06:34.285Z,-8.51
2022-12-18T06:09:09.295Z,-8.33
2022-12-18T06:11:40.202Z,-8.30
2022-12-18T06:14:09.267Z,-8.26
2022-12-18T06:16:37.735Z,-8.16
2022-12-18T06:19:07.592Z,-8.29
2022-12-18T06:21:36.301Z,-8.30
2022-12-18T06:24:05.230Z,-8.32
2022-12-18T06:26:33.897Z,-8.31
2022-12-18T06:29:04.089Z,-8.16
2022-12-18T06:31:32.464Z,-8.09
2022-12-18T06:34:01.102Z,-8.04
2022-12-18T06:36:31.609Z,-8.16
2022-12-18T06:39:00.380Z,-8.06
2022-12-18T06:41:29.915Z,-8.00
2022-12-18T06:44:00.330Z,-7.89
2022-12-18T06:46:29.993Z,-7.83
2022-12-18T06:48:58.709Z,-8.31
2022-12-18T06:51:28.442Z,-8.32
2022-12-18T06:53:57.207Z,-8.11
2022-12-18T06:56:25.928Z,-7.96
2022-12-18T06:58:54.456Z,-7.82
2022-12-18T07:01:24.019Z,-7.87
2022-12-18T07:03:56.378Z,-7.80
2022-12-18T07:06:26.869Z,-7.82
2022-12-18T07:08:56.584Z,-7.76
2022-12-18T07:11:25.516Z,-7.97
2022-12-18T07:13:55.625Z,-7.55
2022-12-18T07:16:25.925Z,-7.34
2022-12-18T07:18:57.800Z,-7.33
2022-12-18T07:21:26.669Z,-7.21
2022-12-18T07:23:55.483Z,-7.08
2022-12-18T07:26:24.696Z,-7.01
2022-12-18T07:28:53.223Z,-6.97
2022-12-18T07:31:23.293Z,-7.03
2022-12-18T07:33:51.818Z,-7.60
2022-12-18T07:36:22.088Z,-8.01
2022-12-18T07:38:51.106Z,-7.73
2022-12-18T07:41:20.029Z,-7.50
2022-12-18T07:43:48.713Z,-7.40
2022-12-18T07:46:18.278Z,-7.30
2022-12-18T07:48:49.413Z,-7.61
2022-12-18T07:51:19.009Z,-7.39
2022-12-18T07:53:51.983Z,-7.46
2022-12-18T07:56:27.633Z,-7.72
2022-12-18T07:58:56.842Z,-8.00
2022-12-18T08:01:25.809Z,-7.46
2022-12-18T08:03:54.683Z,-7.23
2022-12-18T08:06:24.329Z,-7.13
2022-12-18T08:08:55.648Z,-7.01
2022-12-18T08:11:25.705Z,-7.04
2022-12-18T08:13:54.391Z,-7.60
2022-12-18T08:16:23.908Z,-7.57
2022-12-18T08:18:54.342Z,-7.98
2022-12-18T08:21:25.368Z,-7.66
2022-12-18T08:23:56.515Z,-7.57
2022-12-18T08:26:25.970Z,-7.98
2022-12-18T08:28:55.412Z,-8.25
2022-12-18T08:31:24.624Z,-7.98
2022-12-18T08:33:54.053Z,-8.20
2022-12-18T08:36:24.958Z,-8.14
2022-12-18T08:38:56.363Z,-7.88
2022-12-18T08:41:24.674Z,-7.76
2022-12-18T08:44:10.671Z,-7.49
2022-12-18T08:46:41.202Z,-7.34
2022-12-18T08:49:10.979Z,-7.27
2022-12-18T08:51:40.042Z,-7.74
2022-12-18T08:54:11.286Z,-7.14
2022-12-18T08:56:39.933Z,-7.38
2022-12-18T08:59:08.535Z,-7.77
2022-12-18T09:01:37.176Z,-7.38
2022-12-18T09:04:06.850Z,-7.41
2022-12-18T09:06:36.977Z,-7.78
2022-12-18T09:09:07.256Z,-7.55
2022-12-18T09:11:37.402Z,-7.20
2022-12-18T09:14:05.847Z,-6.89
2022-12-18T09:16:36.118Z,-6.82
2022-12-18T09:19:05.901Z,-6.52
2022-12-18T09:21:36.916Z,-6.79
2022-12-18T09:24:08.952Z,-6.91
2022-12-18T09:26:39.335Z,-7.02
2022-12-18T09:29:09.844Z,-7.43
2022-12-18T09:31:38.966Z,-7.65
2022-12-18T09:34:07.841Z,-7.28
2022-12-18T09:36:36.585Z,-7.33
2022-12-18T09:39:08.482Z,-7.03
2022-12-18T09:41:46.228Z,-6.66
2022-12-18T09:44:25.221Z,-6.48
2022-12-18T09:46:58.173Z,-6.17
2022-12-18T09:49:30.222Z,-6.00
2022-12-18T09:52:01.919Z,-5.98
2022-12-18T09:54:36.796Z,-6.08
2022-12-18T09:57:07.144Z,-6.33
2022-12-18T09:59:38.491Z,-6.37
2022-12-18T10:02:22.361Z,-6.41
2022-12-18T10:04:57.980Z,-6.84
2022-12-18T10:07:31.475Z,-7.23
2022-12-18T10:10:04.614Z,-7.20
2022-12-18T10:12:39.501Z,-7.44
2022-12-18T10:15:12.821Z,-7.14
2022-12-18T10:17:45.781Z,-7.33
2022-12-18T10:20:18.716Z,-7.20
2022-12-18T10:22:54.072Z,-6.98
2022-12-18T10:25:26.029Z,-7.35
2022-12-18T10:27:58.834Z,-7.20
2022-12-18T10:30:28.057Z,-7.11
2022-12-18T10:32:57.651Z,-6.86
2022-12-18T10:35:27.892Z,-6.63
2022-12-18T10:38:04.061Z,-6.38
2022-12-18T10:40:32.899Z,-6.36
2022-12-18T10:43:15.597Z,-6.20
2022-12-18T10:45:44.517Z,-6.07
2022-12-18T10:48:23.441Z,-5.84
2022-12-18T10:53:42.572Z,-5.33
2022-12-18T10:56:11.503Z,-5.34
2022-12-18T10:58:42.044Z,-5.02
2022-12-18T11:01:13.284Z,-5.36
2022-12-18T11:03:44.359Z,-5.46
2022-12-18T11:06:15.485Z,-5.78
2022-12-18T11:08:45.695Z,-5.88
2022-12-18T11:11:18.425Z,-5.19
2022-12-18T11:13:59.097Z,-4.98
2022-12-18T11:16:28.524Z,-5.01
2022-12-18T11:19:30.910Z,-4.74
2022-12-18T11:22:00.024Z,-4.99
2022-12-18T11:24:31.913Z,-4.67
2022-12-18T11:27:03.186Z,-4.84
2022-12-18T11:29:40.631Z,-4.88
2022-12-18T11:32:27.133Z,-4.42
2022-12-18T11:35:00.193Z,-4.21
2022-12-18T11:37:29.882Z,-3.63
2022-12-18T11:40:01.109Z,-3.20
2022-12-18T11:42:35.183Z,-3.06
2022-12-18T11:45:19.527Z,-3.17
2022-12-18T11:47:52.524Z,-3.41
2022-12-18T11:50:24.959Z,-3.09
2022-12-18T11:52:58.241Z,-2.75
2022-12-18T11:55:36.170Z,-2.22
2022-12-18T11:58:12.507Z,-2.13
2022-12-18T12:00:49.425Z,-2.32
2022-12-18T12:03:43.015Z,-2.45
2022-12-18T12:06:17.909Z,-2.48
2022-12-18T12:08:56.749Z,-2.55
2022-12-18T12:11:31.305Z,-3.18
2022-12-18T12:14:12.654Z,-3.46
2022-12-18T12:16:50.680Z,-3.44
2022-12-18T12:19:28.464Z,-3.82
2022-12-18T12:22:02.743Z,-3.97
2022-12-18T12:24:40.718Z,-4.22
2022-12-18T12:27:18.275Z,-4.17
2022-12-18T12:29:55.191Z,-4.33
2022-12-18T12:32:38.640Z,-4.22
2022-12-18T12:35:19.161Z,-4.95
2022-12-18T12:37:54.341Z,-4.79
2022-12-18T12:43:23.749Z,-4.48
2022-12-18T12:45:55.816Z,-4.68
2022-12-18T12:48:35.645Z,-4.56
2022-12-18T12:51:07.753Z,-5.62
2022-12-18T12:53:38.605Z,-6.37
2022-12-18T12:56:09.280Z,-6.00
2022-12-18T12:58:43.469Z,-5.85
2022-12-18T13:01:23.337Z,-6.03
2022-12-18T13:04:00.744Z,-6.58
2022-12-18T13:06:50.488Z,-6.05
2022-12-18T13:09:19.209Z,-6.23
2022-12-18T13:12:07.210Z,-6.99
2022-12-18T13:14:37.551Z,-6.92
2022-12-18T13:17:34.493Z,-7.04
2022-12-18T13:20:10.893Z,-6.82
2022-12-18T13:22:41.516Z,-6.86
2022-12-18T13:25:37.220Z,-6.66
2022-12-18T13:28:13.844Z,-6.92
2022-12-18T13:30:57.440Z,-6.75
2022-12-18T13:34:24.559Z,-6.61
2022-12-18T13:36:40.879Z,-6.60
2022-12-18T13:39:30.087Z,-6.52
2022-12-18T13:42:59.246Z,-6.50
2022-12-18T13:45:43.130Z,-6.51
2022-12-18T13:48:30.489Z,-6.85
2022-12-18T13:51:03.128Z,-6.99
2022-12-18T13:53:36.885Z,-6.98
2022-12-18T13:56:06.126Z,-7.11
2022-12-18T13:58:35.429Z,-7.14
2022-12-18T14:01:05.777Z,-6.90
2022-12-18T14:03:34.598Z,-6.99
2022-12-18T14:06:06.658Z,-6.88
2022-12-18T14:08:40.169Z,-6.82
2022-12-18T14:11:09.820Z,-7.26
2022-12-18T14:13:43.598Z,-7.55
2022-12-18T14:16:16.901Z,-7.39
2022-12-18T14:18:48.028Z,-7.27
2022-12-18T14:21:22.636Z,-7.17
2022-12-18T14:24:06.060Z,-7.37
2022-12-18T14:26:35.065Z,-7.11
2022-12-18T14:29:20.858Z,-6.93
2022-12-18T14:32:17.443Z,-6.89
2022-12-18T14:34:48.046Z,-6.95
2022-12-18T14:37:18.565Z,-6.93
2022-12-18T14:40:00.107Z,-6.83
2022-12-18T14:42:30.072Z,-6.95
2022-12-18T14:45:41.507Z,-7.37
2022-12-18T14:48:14.858Z,-7.79
2022-12-18T14:50:57.835Z,-7.70
2022-12-18T14:53:36.972Z,-7.78
2022-12-18T14:56:16.049Z,-7.51
2022-12-18T14:58:51.238Z,-7.56
2022-12-18T15:01:22.116Z,-7.20
2022-12-18T15:03:50.975Z,-7.11
2022-12-18T15:06:25.785Z,-7.27
2022-12-18T15:08:54.544Z,-7.13
2022-12-18T15:11:31.045Z,-7.49
2022-12-18T15:14:01.697Z,-8.02
2022-12-18T15:16:31.665Z,-7.87
2022-12-18T15:19:00.500Z,-8.19
2022-12-18T15:21:31.680Z,-8.12
2022-12-18T15:24:00.376Z,-8.07
2022-12-18T15:26:39.522Z,-7.45
2022-12-18T15:29:17.880Z,-7.91
2022-12-18T15:31:46.963Z,-7.41
2022-12-18T15:34:20.599Z,-7.45
2022-12-18T15:36:49.337Z,-8.14
2022-12-18T15:39:17.996Z,-7.77
2022-12-18T15:42:01.871Z,-7.51
2022-12-18T15:44:30.704Z,-7.52
2022-12-18T15:46:59.300Z,-8.03
2022-12-18T15:49:27.835Z,-7.53
2022-12-18T15:51:58.619Z,-7.77
2022-12-18T15:54:41.122Z,-7.73
2022-12-18T15:57:27.836Z,-7.59
2022-12-18T15:59:59.406Z,-7.64
2022-12-18T16:02:29.645Z,-8.19
2022-12-18T16:04:58.554Z,-8.04
2022-12-18T16:07:30.296Z,-8.07
2022-12-18T16:10:02.267Z,-7.96
2022-12-18T16:12:33.257Z,-7.57
2022-12-18T16:15:02.973Z,-8.18
2022-12-18T16:17:31.674Z,-7.90
2022-12-18T16:20:00.957Z,-7.53
2022-12-18T16:22:31.030Z,-7.66
2022-12-18T16:25:00.206Z,-7.91
2022-12-18T16:27:28.772Z,-7.74
2022-12-18T16:29:58.862Z,-7.50
2022-12-18T16:32:27.265Z,-7.78
2022-12-18T16:34:55.602Z,-7.76
2022-12-18T16:37:24.209Z,-7.80
2022-12-18T16:39:52.862Z,-8.20
2022-12-18T16:42:21.881Z,-7.66
2022-12-18T16:44:51.492Z,-7.66
2022-12-18T16:47:21.612Z,-8.26
2022-12-18T16:49:51.933Z,-8.72
2022-12-18T16:52:21.180Z,-8.24
2022-12-18T16:54:49.922Z,-8.35
2022-12-18T16:57:23.191Z,-8.45
2022-12-18T16:59:54.249Z,-8.04
2022-12-18T17:02:26.078Z,-8.16
2022-12-18T17:04:56.957Z,-7.98
2022-12-18T17:07:26.472Z,-8.51
2022-12-18T17:09:55.146Z,-8.09
2022-12-18T17:12:25.144Z,-8.26
2022-12-18T17:14:53.867Z,-8.29
2022-12-18T17:17:24.272Z,-8.01
2022-12-18T17:19:52.823Z,-8.61
2022-12-18T17:22:21.961Z,-8.88
2022-12-18T17:24:50.893Z,-8.93
2022-12-18T17:27:19.696Z,-9.08
2022-12-18T17:29:49.093Z,-8.65
2022-12-18T17:32:19.235Z,-8.48
2022-12-18T17:34:48.837Z,-8.18
2022-12-18T17:37:17.301Z,-8.85
2022-12-18T17:39:46.074Z,-8.91
2022-12-18T17:42:16.008Z,-8.73
2022-12-18T17:44:46.150Z,-8.49
2022-12-18T17:47:14.876Z,-8.49
2022-12-18T17:49:43.270Z,-9.37
2022-12-18T17:52:13.795Z,-8.91
2022-12-18T17:54:43.930Z,-9.60
2022-12-18T17:57:12.366Z,-8.89
2022-12-18T17:59:41.101Z,-9.61
2022-12-18T18:02:11.718Z,-9.88
2022-12-18T18:04:41.212Z,-9.74
2022-12-18T18:07:09.960Z,-9.80
2022-12-18T18:09:40.060Z,-9.90
2022-12-18T18:12:25.095Z,-9.52
2022-12-18T18:14:54.038Z,-9.20
2022-12-18T18:17:23.866Z,-9.36
2022-12-18T18:19:52.589Z,-9.68
2022-12-18T18:22:21.277Z,-9.48
2022-12-18T18:24:53.186Z,-9.65
2022-12-18T18:27:21.867Z,-9.50
2022-12-18T18:29:50.588Z,-9.36
2022-12-18T18:32:19.309Z,-9.39
2022-12-18T18:34:48.643Z,-9.06
2022-12-18T18:37:17.450Z,-9.77
2022-12-18T18:39:46.067Z,-10.01
2022-12-18T18:42:16.075Z,-9.45
2022-12-18T18:44:48.708Z,-9.59
2022-12-18T18:47:17.971Z,-9.60
2022-12-18T18:49:46.265Z,-9.20
2022-12-18T18:52:15.482Z,-9.97
2022-12-18T18:55:03.810Z,-9.42
2022-12-18T18:57:35.027Z,-9.18
2022-12-18T19:00:03.971Z,-9.46
2022-12-18T19:02:32.684Z,-9.42
2022-12-18T19:05:01.403Z,-10.34
2022-12-18T19:07:31.344Z,-10.41
2022-12-18T19:10:04.942Z,-10.01
2022-12-18T19:12:53.684Z,-9.86
2022-12-18T19:15:23.874Z,-9.79
2022-12-18T19:17:52.854Z,-9.38
2022-12-18T19:20:21.489Z,-9.24
2022-12-18T19:22:55.823Z,-9.27
2022-12-18T19:25:38.225Z,-9.27
2022-12-18T19:28:16.431Z,-9.53
2022-12-18T19:30:58.943Z,-9.49
2022-12-18T19:33:45.064Z,-9.67
2022-12-18T19:36:16.233Z,-10.12
2022-12-18T19:38:45.536Z,-10.55
2022-12-18T19:41:15.450Z,-10.06
2022-12-18T19:43:45.988Z,-10.29
2022-12-18T19:46:16.164Z,-9.46
2022-12-18T19:48:45.411Z,-10.02
2022-12-18T19:51:16.780Z,-10.18
2022-12-18T19:53:46.132Z,-10.49
2022-12-18T19:56:16.352Z,-10.40
2022-12-18T19:58:46.216Z,-9.85
2022-12-18T20:01:16.759Z,-9.77
2022-12-18T20:03:46.619Z,-9.44
2022-12-18T20:06:23.556Z,-9.76
2022-12-18T20:08:53.927Z,-10.12
2022-12-18T20:11:27.816Z,-9.74
2022-12-18T20:13:57.527Z,-9.67
2022-12-18T20:16:29.038Z,-9.25
2022-12-18T20:18:58.101Z,-9.78
2022-12-18T20:21:27.135Z,-9.66
2022-12-18T20:23:56.202Z,-9.42
2022-12-18T20:26:25.132Z,-9.05
2022-12-18T20:28:53.705Z,-9.01
2022-12-18T20:31:24.310Z,-9.39
2022-12-18T20:33:54.482Z,-8.99
2022-12-18T20:36:26.952Z,-9.75
2022-12-18T20:38:59.268Z,-9.68
2022-12-18T20:41:31.992Z,-10.02
2022-12-18T20:44:21.956Z,-9.61
2022-12-18T20:46:56.797Z,-9.50
2022-12-18T20:49:26.806Z,-9.73
2022-12-18T20:51:56.611Z,-9.91
2022-12-18T20:54:26.812Z,-9.53
2022-12-18T20:56:55.704Z,-9.88
2022-12-18T20:59:25.768Z,-10.38
2022-12-18T21:01:56.008Z,-9.55
2022-12-18T21:04:25.522Z,-9.68
2022-12-18T21:06:57.850Z,-9.53
2022-12-18T21:09:37.832Z,-9.66
2022-12-18T21:12:25.889Z,-9.60
2022-12-18T21:14:54.902Z,-9.08
2022-12-18T21:17:25.959Z,-9.49
2022-12-18T21:19:56.007Z,-9.38
2022-12-18T21:22:25.244Z,-9.41
2022-12-18T21:24:53.941Z,-9.63
2022-12-18T21:27:22.674Z,-9.45
2022-12-18T21:29:52.411Z,-10.03
2022-12-18T21:32:21.131Z,-10.14
2022-12-18T21:34:53.902Z,-9.93
2022-12-18T21:37:22.502Z,-9.46
2022-12-18T21:39:51.213Z,-9.72
2022-12-18T21:42:37.212Z,-10.13
2022-12-18T21:45:06.433Z,-9.82
2022-12-18T21:47:35.140Z,-10.09
2022-12-18T21:50:05.726Z,-9.78
2022-12-18T21:52:33.948Z,-10.51
2022-12-18T21:55:08.924Z,-9.58
2022-12-18T21:57:39.021Z,-9.59
2022-12-18T22:00:09.072Z,-9.75
2022-12-18T22:02:41.746Z,-9.74
2022-12-18T22:05:12.699Z,-9.58
2022-12-18T22:07:41.584Z,-9.63
2022-12-18T22:10:10.814Z,-10.06
2022-12-18T22:12:43.635Z,-10.07
2022-12-18T22:15:15.737Z,-10.34
2022-12-18T22:17:57.571Z,-10.29
2022-12-18T22:20:30.636Z,-9.41
2022-12-18T22:22:59.531Z,-9.68
2022-12-18T22:25:32.543Z,-9.24
2022-12-18T22:28:17.248Z,-9.93
2022-12-18T22:30:46.186Z,-10.01
2022-12-18T22:33:14.724Z,-10.29
2022-12-18T22:35:44.790Z,-9.74
2022-12-18T22:38:13.826Z,-9.58
2022-12-18T22:40:42.146Z,-10.10
2022-12-18T22:43:10.704Z,-9.72
2022-12-18T22:45:39.418Z,-9.87
2022-12-18T22:48:08.169Z,-9.69
2022-12-18T22:50:36.977Z,-9.48
2022-12-18T22:53:07.885Z,-9.81
2022-12-18T22:55:36.173Z,-9.59
2022-12-18T22:58:04.822Z,-10.25
2022-12-18T23:00:33.776Z,-10.10
2022-12-18T23:03:02.629Z,-10.10
2022-12-18T23:05:31.789Z,-9.70
2022-12-18T23:08:00.882Z,-10.05
2022-12-18T23:10:30.529Z,-9.51
2022-12-18T23:12:59.894Z,-9.64
2022-12-18T23:15:28.743Z,-9.79
2022-12-18T23:17:58.971Z,-9.45
2022-12-18T23:20:28.738Z,-9.84
2022-12-18T23:22:57.089Z,-10.12
2022-12-18T23:25:25.821Z,-10.44
2022-12-18T23:27:55.865Z,-10.48
2022-12-18T23:30:24.649Z,-10.63
2022-12-18T23:32:53.308Z,-10.50
2022-12-18T23:35:22.137Z,-10.46
2022-12-18T23:37:58.654Z,-10.01
2022-12-18T23:40:27.961Z,-9.89
2022-12-18T23:42:57.963Z,-9.85
2022-12-18T23:45:27.031Z,-9.38
2022-12-18T23:47:55.603Z,-9.89
2022-12-18T23:50:29.483Z,-9.66
2022-12-18T23:53:05.119Z,-10.28
2022-12-18T23:55:39.734Z,-10.41
2022-12-18T23:58:10.422Z,-10.24
